Time;durP1;ratioP1;P1;durP2;ratioP2;P2;SDS_P1;SDS_P2;PMS_P1;PMS_P2;Temp;Humidity;BMP_temperature;BMP_pressure;BME280_temperature;BME280_humidity;BME280_pressure;Samples;Min_cycle;Max_cycle;Signal;HPM_P1;HPM_P2
2023/12/14 00:00:52;;;;;;;16.60;14.17;;;;;;;;;;5111070;28;20219;-77
2023/12/14 00:03:19;;;;;;;16.73;14.33;;;;;;;;;;5097175;28;20200;-77
2023/12/14 00:05:46;;;;;;;14.27;11.97;;;;;;;;;;5111234;28;20199;-77
2023/12/14 00:08:13;;;;;;;19.80;13.77;;;;;;;;;;5110679;28;20199;-77
2023/12/14 00:10:39;;;;;;;15.47;12.13;;;;;;;;;;5098449;28;20206;-77
2023/12/14 00:13:08;;;;;;;17.40;12.17;;;;;;;;;;5096811;28;20218;-77
2023/12/14 00:15:34;;;;;;;13.10;10.53;;;;;;;;;;5091018;28;20224;-77
2023/12/14 00:18:01;;;;;;;14.80;11.87;;;;;;;;;;5105352;28;20207;-77
2023/12/14 00:20:28;;;;;;;14.60;10.47;;;;;;;;;;5111325;28;20230;-77
2023/12/14 00:22:55;;;;;;;13.10;11.47;;;;;;;;;;5111016;28;20203;-78
2023/12/14 00:25:22;;;;;;;19.67;10.63;;;;;;;;;;5103139;28;20200;-78
2023/12/14 00:27:49;;;;;;;13.37;10.30;;;;;;;;;;5105568;28;20199;-78
2023/12/14 00:30:18;;;;;;;12.60;10.77;;;;;;;;;;5110943;28;20223;-78
2023/12/14 00:32:45;;;;;;;14.40;10.93;;;;;;;;;;5114737;28;20199;-78
2023/12/14 00:35:12;;;;;;;13.43;10.43;;;;;;;;;;5106295;28;20204;-78
2023/12/14 00:37:39;;;;;;;11.10;9.93;;;;;;;;;;5107808;28;20200;-78
2023/12/14 00:40:09;;;;;;;15.60;10.10;;;;;;;;;;5104049;28;20203;-78
2023/12/14 00:42:36;;;;;;;12.80;10.87;;;;;;;;;;5097957;28;20209;-78
2023/12/14 00:45:03;;;;;;;14.87;11.70;;;;;;;;;;5095028;28;20597;-77
2023/12/14 00:47:31;;;;;;;16.73;12.90;;;;;;;;;;5112462;28;20200;-78
2023/12/14 00:49:58;;;;;;;11.83;10.43;;;;;;;;;;5115333;28;20212;-78
2023/12/14 00:52:25;;;;;;;17.50;12.37;;;;;;;;;;5101128;28;20196;-78
2023/12/14 00:54:51;;;;;;;11.87;9.87;;;;;;;;;;5114491;28;20207;-78
2023/12/14 00:57:18;;;;;;;13.73;10.40;;;;;;;;;;5100920;28;20202;-78
2023/12/14 00:59:45;;;;;;;11.93;10.47;;;;;;;;;;5115050;28;20199;-78
2023/12/14 01:02:12;;;;;;;16.83;12.00;;;;;;;;;;5095964;28;20224;-78
2023/12/14 01:04:41;;;;;;;14.43;10.53;;;;;;;;;;5106345;28;20211;-78
2023/12/14 01:07:08;;;;;;;14.30;12.13;;;;;;;;;;5100287;28;20290;-78
2023/12/14 01:09:35;;;;;;;16.30;11.80;;;;;;;;;;5102217;28;20200;-78
2023/12/14 01:12:02;;;;;;;14.93;10.73;;;;;;;;;;5113520;28;20640;-78
2023/12/14 01:14:29;;;;;;;17.30;11.07;;;;;;;;;;5114125;28;20204;-78
2023/12/14 01:16:56;;;;;;;15.97;10.50;;;;;;;;;;5100692;28;20219;-78
2023/12/14 01:19:25;;;;;;;10.83;9.73;;;;;;;;;;5101794;28;20197;-78
2023/12/14 01:21:55;;;;;;;11.70;9.77;;;;;;;;;;5114025;28;20219;-78
2023/12/14 01:24:21;;;;;;;11.13;9.73;;;;;;;;;;5114288;28;20261;-78
2023/12/14 01:26:48;;;;;;;11.97;9.70;;;;;;;;;;5100140;28;20208;-78
2023/12/14 01:29:16;;;;;;;13.00;11.20;;;;;;;;;;5114257;28;20211;-78
2023/12/14 01:31:43;;;;;;;11.67;9.67;;;;;;;;;;5093775;28;20204;-78
2023/12/14 01:34:11;;;;;;;14.03;11.20;;;;;;;;;;5107879;28;20208;-78
2023/12/14 01:36:38;;;;;;;17.30;11.43;;;;;;;;;;5106655;28;20224;-78
2023/12/14 01:39:06;;;;;;;13.43;10.17;;;;;;;;;;5094174;28;20705;-78
2023/12/14 01:41:33;;;;;;;14.17;10.80;;;;;;;;;;5105996;28;20244;-77
2023/12/14 01:44:00;;;;;;;12.83;9.97;;;;;;;;;;5105775;28;20195;-78
2023/12/14 01:46:27;;;;;;;17.70;11.20;;;;;;;;;;5093482;28;20204;-78
2023/12/14 01:48:53;;;;;;;16.20;12.67;;;;;;;;;;5109642;28;20670;-78
2023/12/14 01:51:20;;;;;;;17.37;12.70;;;;;;;;;;5103980;28;20606;-78
2023/12/14 01:53:47;;;;;;;15.23;11.30;;;;;;;;;;5093145;28;20598;-78
2023/12/14 01:56:15;;;;;;;17.13;12.07;;;;;;;;;;5093386;28;20208;-78
2023/12/14 01:58:42;;;;;;;17.30;11.53;;;;;;;;;;5093323;28;20200;-78
2023/12/14 02:01:15;;;;;;;17.33;11.70;;;;;;;;;;5093469;28;20224;-78
2023/12/14 02:03:46;;;;;;;11.23;9.70;;;;;;;;;;5106840;28;20690;-78
2023/12/14 02:06:12;;;;;;;15.07;13.07;;;;;;;;;;5105419;28;20257;-78
2023/12/14 02:08:39;;;;;;;15.40;12.20;;;;;;;;;;5094647;28;20204;-78
2023/12/14 02:11:06;;;;;;;18.43;12.87;;;;;;;;;;5092914;28;20290;-78
2023/12/14 02:13:35;;;;;;;20.87;15.20;;;;;;;;;;5092816;28;20228;-78
2023/12/14 02:16:02;;;;;;;13.00;10.87;;;;;;;;;;5093460;28;20258;-78
2023/12/14 02:18:29;;;;;;;12.23;9.27;;;;;;;;;;5092964;28;20203;-78
2023/12/14 02:20:56;;;;;;;14.60;9.93;;;;;;;;;;5106299;28;20207;-77
2023/12/14 02:23:24;;;;;;;13.43;9.83;;;;;;;;;;5093105;28;20211;-78
2023/12/14 02:25:50;;;;;;;20.90;17.30;;;;;;;;;;5092501;28;20207;-78
2023/12/14 02:28:18;;;;;;;59.83;40.33;;;;;;;;;;5099748;28;20253;-77
2023/12/14 02:30:44;;;;;;;15.03;12.13;;;;;;;;;;5113480;28;20228;-78
2023/12/14 02:33:11;;;;;;;12.03;10.67;;;;;;;;;;5105228;28;20274;-78
2023/12/14 02:35:38;;;;;;;61.50;44.57;;;;;;;;;;5106341;28;20199;-78
2023/12/14 02:38:08;;;;;;;27.80;19.43;;;;;;;;;;5092739;28;20212;-78
2023/12/14 02:40:36;;;;;;;13.50;10.93;;;;;;;;;;5094098;28;20205;-77
2023/12/14 02:43:03;;;;;;;12.77;9.87;;;;;;;;;;5103586;28;20706;-78
2023/12/14 02:45:29;;;;;;;11.37;8.80;;;;;;;;;;5106627;28;20690;-78
2023/12/14 02:47:56;;;;;;;11.63;8.93;;;;;;;;;;5104690;28;20203;-78
2023/12/14 02:50:23;;;;;;;12.57;9.50;;;;;;;;;;5093060;28;20590;-78
2023/12/14 02:52:50;;;;;;;10.37;8.77;;;;;;;;;;5112761;28;20256;-78
2023/12/14 02:55:17;;;;;;;14.90;9.23;;;;;;;;;;5111623;28;20203;-78
2023/12/14 02:57:45;;;;;;;9.20;8.30;;;;;;;;;;5112519;28;20207;-78
2023/12/14 03:00:14;;;;;;;10.77;9.13;;;;;;;;;;5110191;28;20324;-78
2023/12/14 03:02:41;;;;;;;16.23;10.50;;;;;;;;;;5101619;28;20227;-77
2023/12/14 03:05:08;;;;;;;16.67;12.40;;;;;;;;;;5112078;28;20202;-78
2023/12/14 03:07:35;;;;;;;13.37;11.60;;;;;;;;;;5102947;28;20196;-77
2023/12/14 03:10:03;;;;;;;15.40;12.67;;;;;;;;;;5091987;28;20211;-78
2023/12/14 03:12:30;;;;;;;14.63;12.10;;;;;;;;;;5092163;28;20204;-77
2023/12/14 03:14:58;;;;;;;12.27;10.90;;;;;;;;;;5105218;28;20235;-77
2023/12/14 03:17:25;;;;;;;11.63;10.13;;;;;;;;;;5091588;28;20697;-78
2023/12/14 03:19:52;;;;;;;14.57;11.93;;;;;;;;;;5105057;28;20204;-78
2023/12/14 03:22:19;;;;;;;12.70;9.70;;;;;;;;;;5091606;28;20706;-81
2023/12/14 03:24:46;;;;;;;10.23;8.83;;;;;;;;;;5108850;28;20198;-78
2023/12/14 03:27:14;;;;;;;9.27;8.27;;;;;;;;;;5101154;28;20208;-78
2023/12/14 03:29:41;;;;;;;11.47;8.83;;;;;;;;;;5096285;28;20223;-77
2023/12/14 03:32:09;;;;;;;11.40;9.67;;;;;;;;;;5111751;28;20589;-78
2023/12/14 03:34:36;;;;;;;10.87;9.40;;;;;;;;;;5097671;28;20709;-77
2023/12/14 03:37:02;;;;;;;11.23;8.37;;;;;;;;;;5111806;28;20206;-77
2023/12/14 03:39:29;;;;;;;11.03;9.07;;;;;;;;;;5111945;28;20200;-77
2023/12/14 03:41:56;;;;;;;12.67;9.07;;;;;;;;;;5111380;28;20219;-78
2023/12/14 03:44:23;;;;;;;13.77;9.40;;;;;;;;;;5091804;28;20234;-77
2023/12/14 03:46:50;;;;;;;13.03;9.00;;;;;;;;;;5091619;28;20257;-77
2023/12/14 03:49:21;;;;;;;43.33;34.53;;;;;;;;;;5091411;28;20208;-78
2023/12/14 03:51:48;;;;;;;26.63;23.80;;;;;;;;;;5091664;28;20293;-77
2023/12/14 03:54:16;;;;;;;19.77;16.40;;;;;;;;;;5097588;28;20236;-78
2023/12/14 03:56:42;;;;;;;15.83;14.23;;;;;;;;;;5111183;28;20257;-77
2023/12/14 03:59:09;;;;;;;11.90;10.40;;;;;;;;;;5091173;28;20207;-78
2023/12/14 04:01:39;;;;;;;16.13;10.90;;;;;;;;;;5103803;28;20223;-77
2023/12/14 04:04:06;;;;;;;23.27;19.20;;;;;;;;;;5111705;28;20294;-77
2023/12/14 04:06:34;;;;;;;25.90;22.40;;;;;;;;;;5110877;28;20218;-77
2023/12/14 04:09:01;;;;;;;27.73;24.47;;;;;;;;;;5111247;28;20203;-77
2023/12/14 04:11:28;;;;;;;29.40;22.47;;;;;;;;;;5108644;28;20229;-78
2023/12/14 04:13:54;;;;;;;51.07;32.73;;;;;;;;;;5111007;28;20199;-78
2023/12/14 04:16:22;;;;;;;140.97;85.67;;;;;;;;;;5104312;28;20224;-78
2023/12/14 04:18:50;;;;;;;162.37;97.13;;;;;;;;;;5090778;28;20204;-79
2023/12/14 04:21:17;;;;;;;63.70;42.97;;;;;;;;;;5097756;28;20203;-79
2023/12/14 04:23:45;;;;;;;28.80;19.47;;;;;;;;;;5110454;28;20207;-78
2023/12/14 04:26:13;;;;;;;13.03;10.50;;;;;;;;;;5090546;28;20200;-78
2023/12/14 04:28:40;;;;;;;14.20;10.20;;;;;;;;;;5090021;28;20709;-79
2023/12/14 04:31:07;;;;;;;13.93;11.20;;;;;;;;;;5098263;28;20219;-80
2023/12/14 04:33:34;;;;;;;19.80;14.33;;;;;;;;;;5096745;28;20599;-81
2023/12/14 04:36:00;;;;;;;18.90;13.73;;;;;;;;;;5090483;28;20201;-80
2023/12/14 04:38:27;;;;;;;29.23;22.33;;;;;;;;;;5090529;28;20200;-80
2023/12/14 04:40:56;;;;;;;38.00;23.27;;;;;;;;;;5102381;28;20589;-81
2023/12/14 04:43:22;;;;;;;19.33;14.70;;;;;;;;;;5089712;28;20228;-81
2023/12/14 04:45:49;;;;;;;14.87;12.20;;;;;;;;;;5089624;28;20192;-80
2023/12/14 04:48:16;;;;;;;155.20;91.73;;;;;;;;;;5089741;28;20203;-80
2023/12/14 04:50:43;;;;;;;46.30;33.47;;;;;;;;;;5108028;28;20198;-80
2023/12/14 04:53:09;;;;;;;40.07;32.17;;;;;;;;;;5110684;28;20199;-80
2023/12/14 04:55:35;;;;;;;41.60;30.47;;;;;;;;;;5106620;28;20262;-79
2023/12/14 04:58:05;;;;;;;28.97;20.87;;;;;;;;;;5090553;28;20204;-80
2023/12/14 05:00:32;;;;;;;19.87;14.40;;;;;;;;;;5090665;28;20211;-80
2023/12/14 05:02:59;;;;;;;12.77;9.97;;;;;;;;;;5101944;28;20227;-81
2023/12/14 05:05:26;;;;;;;13.33;10.17;;;;;;;;;;5092161;28;20201;-81
2023/12/14 05:07:53;;;;;;;121.27;70.70;;;;;;;;;;5090240;28;20679;-80
2023/12/14 05:10:19;;;;;;;51.40;31.03;;;;;;;;;;5090671;28;20201;-79
2023/12/14 05:12:46;;;;;;;19.13;14.90;;;;;;;;;;5102537;28;20211;-80
2023/12/14 05:15:15;;;;;;;15.03;11.13;;;;;;;;;;5097544;28;20227;-80
2023/12/14 05:17:42;;;;;;;15.00;10.60;;;;;;;;;;5110884;28;20212;-80
2023/12/14 05:20:09;;;;;;;11.80;8.97;;;;;;;;;;5094617;28;20199;-80
2023/12/14 05:22:36;;;;;;;10.17;9.10;;;;;;;;;;5107082;28;20225;-80
2023/12/14 05:25:04;;;;;;;10.47;9.30;;;;;;;;;;5114098;28;20757;-79
2023/12/14 05:27:31;;;;;;;12.30;9.87;;;;;;;;;;5098466;28;20200;-80
2023/12/14 05:29:57;;;;;;;12.60;9.93;;;;;;;;;;5094050;28;20602;-80
2023/12/14 05:32:26;;;;;;;11.57;9.27;;;;;;;;;;5104330;28;20215;-80
2023/12/14 05:34:52;;;;;;;11.60;10.37;;;;;;;;;;5101695;28;20215;-82
2023/12/14 05:37:19;;;;;;;17.10;11.20;;;;;;;;;;5099133;28;20201;-80
2023/12/14 05:39:46;;;;;;;12.27;10.07;;;;;;;;;;5092984;28;20211;-80
2023/12/14 05:42:13;;;;;;;30.93;25.80;;;;;;;;;;5093762;28;20622;-80
2023/12/14 05:44:39;;;;;;;45.60;40.17;;;;;;;;;;5093966;28;20291;-79
2023/12/14 05:47:06;;;;;;;34.97;26.30;;;;;;;;;;5094538;28;20702;-79
2023/12/14 05:49:34;;;;;;;20.13;17.37;;;;;;;;;;5105934;28;20223;-80
2023/12/14 05:52:01;;;;;;;18.47;14.53;;;;;;;;;;5106657;28;20211;-80
2023/12/14 05:54:28;;;;;;;19.73;17.43;;;;;;;;;;5101955;28;20199;-80
2023/12/14 05:56:55;;;;;;;16.53;14.43;;;;;;;;;;5099021;28;20200;-80
2023/12/14 05:59:22;;;;;;;16.67;13.97;;;;;;;;;;5112939;28;20211;-80
2023/12/14 06:01:48;;;;;;;15.20;12.60;;;;;;;;;;5110938;28;20206;-80
2023/12/14 06:04:15;;;;;;;12.60;10.70;;;;;;;;;;5102457;28;20325;-80
2023/12/14 06:06:43;;;;;;;14.10;12.63;;;;;;;;;;5097415;28;20635;-80
2023/12/14 06:09:10;;;;;;;14.63;12.73;;;;;;;;;;5102764;28;20203;-80
2023/12/14 06:11:37;;;;;;;14.33;12.77;;;;;;;;;;5096832;28;20200;-80
2023/12/14 06:14:06;;;;;;;15.07;13.37;;;;;;;;;;5103131;28;20253;-80
2023/12/14 06:16:33;;;;;;;15.73;13.77;;;;;;;;;;5099487;28;20229;-80
2023/12/14 06:19:00;;;;;;;21.23;17.23;;;;;;;;;;5112973;28;20204;-80
2023/12/14 06:21:28;;;;;;;18.37;15.23;;;;;;;;;;5109532;28;20200;-80
2023/12/14 06:23:57;;;;;;;16.03;12.63;;;;;;;;;;5103917;28;20223;-80
2023/12/14 06:26:24;;;;;;;14.47;12.97;;;;;;;;;;5099001;28;20227;-79
2023/12/14 06:28:50;;;;;;;61.83;42.93;;;;;;;;;;5112924;28;20207;-80
2023/12/14 06:31:22;;;;;;;53.53;36.50;;;;;;;;;;5099511;28;20221;-80
2023/12/14 06:33:49;;;;;;;56.50;37.60;;;;;;;;;;5101499;28;20258;-79
2023/12/14 06:36:20;;;;;;;33.53;25.27;;;;;;;;;;5092761;28;20294;-80
2023/12/14 06:38:47;;;;;;;18.33;15.77;;;;;;;;;;5105654;28;20211;-80
2023/12/14 06:41:21;;;;;;;13.07;11.67;;;;;;;;;;5112559;28;20202;-80
2023/12/14 06:43:48;;;;;;;14.37;11.83;;;;;;;;;;5098780;28;20314;-80
2023/12/14 06:46:15;;;;;;;15.80;13.20;;;;;;;;;;5100028;28;20199;-80
2023/12/14 06:48:42;;;;;;;20.90;16.43;;;;;;;;;;5111813;28;20223;-80
2023/12/14 06:51:09;;;;;;;32.60;25.27;;;;;;;;;;5092302;28;20201;-80
2023/12/14 06:53:37;;;;;;;30.13;26.53;;;;;;;;;;5105781;28;20218;-80
2023/12/14 06:56:04;;;;;;;29.37;23.17;;;;;;;;;;5099682;28;20202;-80
2023/12/14 06:58:33;;;;;;;27.43;20.87;;;;;;;;;;5098799;28;20591;-80
2023/12/14 07:00:59;;;;;;;50.80;36.70;;;;;;;;;;5112527;28;20203;-80
2023/12/14 07:03:26;;;;;;;24.57;19.90;;;;;;;;;;5112153;28;20227;-80
2023/12/14 07:05:53;;;;;;;17.40;14.03;;;;;;;;;;5104180;28;20196;-80
2023/12/14 07:08:20;;;;;;;15.23;12.10;;;;;;;;;;5106793;28;20202;-80
2023/12/14 07:10:47;;;;;;;12.50;10.00;;;;;;;;;;5103810;28;20208;-79
2023/12/14 07:13:13;;;;;;;11.73;9.57;;;;;;;;;;5091933;28;20227;-80
2023/12/14 07:15:41;;;;;;;9.80;8.73;;;;;;;;;;5100794;28;20234;-80
2023/12/14 07:18:08;;;;;;;10.57;9.13;;;;;;;;;;5097640;28;20571;-80
2023/12/14 07:20:35;;;;;;;11.63;8.47;;;;;;;;;;5112143;28;20210;-80
2023/12/14 07:23:02;;;;;;;11.03;8.70;;;;;;;;;;5111844;28;20238;-80
2023/12/14 07:25:29;;;;;;;9.20;8.27;;;;;;;;;;5111740;28;20203;-80
2023/12/14 07:27:56;;;;;;;17.10;14.80;;;;;;;;;;5108900;28;20588;-80
2023/12/14 07:30:23;;;;;;;21.00;14.90;;;;;;;;;;5102246;28;20203;-80
2023/12/14 07:32:52;;;;;;;14.70;13.10;;;;;;;;;;5111532;28;20200;-79
2023/12/14 07:35:23;;;;;;;12.23;10.83;;;;;;;;;;5111800;28;20202;-80
2023/12/14 07:37:50;;;;;;;18.57;13.57;;;;;;;;;;5093499;28;20203;-80
2023/12/14 07:40:16;;;;;;;22.37;16.53;;;;;;;;;;5103103;28;20203;-79
2023/12/14 07:42:43;;;;;;;21.00;16.20;;;;;;;;;;5096990;28;20222;-79
2023/12/14 07:45:11;;;;;;;15.90;13.40;;;;;;;;;;5100026;28;20212;-79
2023/12/14 07:47:37;;;;;;;18.80;13.03;;;;;;;;;;5104685;28;20196;-79
2023/12/14 07:50:07;;;;;;;22.37;16.57;;;;;;;;;;5103278;28;20627;-79
2023/12/14 07:52:34;;;;;;;23.30;17.93;;;;;;;;;;5105410;28;20689;-79
2023/12/14 07:55:01;;;;;;;36.33;27.67;;;;;;;;;;5091636;28;20632;-79
2023/12/14 07:57:28;;;;;;;39.47;31.03;;;;;;;;;;5090940;28;20203;-80
2023/12/14 07:59:55;;;;;;;40.33;30.30;;;;;;;;;;5091142;28;20202;-80
2023/12/14 08:02:22;;;;;;;22.00;18.00;;;;;;;;;;5091426;28;20207;-79
2023/12/14 08:04:48;;;;;;;21.20;17.93;;;;;;;;;;5090992;28;20223;-80
2023/12/14 08:07:16;;;;;;;20.33;17.67;;;;;;;;;;5098364;28;20598;-79
2023/12/14 08:09:43;;;;;;;20.33;16.57;;;;;;;;;;5111219;28;20237;-79
2023/12/14 13:29:22;;;;;;;11.87;8.97;;;;;;;;;;5128897;27;20563;-77
2023/12/14 13:31:48;;;;;;;9.57;8.47;;;;;;;;;;5128822;28;20202;-77
2023/12/14 13:34:16;;;;;;;13.43;8.43;;;;;;;;;;5128641;28;20665;-78
2023/12/14 13:36:43;;;;;;;9.23;8.27;;;;;;;;;;5126493;28;20213;-79
2023/12/14 13:39:11;;;;;;;14.57;11.80;;;;;;;;;;5117821;28;20195;-77
2023/12/14 13:41:38;;;;;;;12.37;9.87;;;;;;;;;;5128062;28;20206;-77
2023/12/14 13:44:05;;;;;;;11.23;10.13;;;;;;;;;;5128821;28;20207;-79
2023/12/14 13:46:33;;;;;;;11.93;9.07;;;;;;;;;;5114720;28;20218;-79
2023/12/14 13:48:59;;;;;;;12.03;7.90;;;;;;;;;;5128350;28;20199;-78
2023/12/14 13:51:27;;;;;;;10.40;8.07;;;;;;;;;;5128942;28;20601;-77
2023/12/14 13:53:53;;;;;;;11.43;7.97;;;;;;;;;;5128373;28;20199;-79
2023/12/14 13:56:20;;;;;;;12.73;7.97;;;;;;;;;;5128683;28;20203;-79
2023/12/14 13:58:47;;;;;;;8.90;6.93;;;;;;;;;;5128199;28;20226;-77
2023/12/14 14:01:14;;;;;;;12.53;6.97;;;;;;;;;;5128510;28;20203;-77
2023/12/14 14:03:43;;;;;;;10.07;6.90;;;;;;;;;;5127910;28;20207;-77
2023/12/14 14:06:10;;;;;;;14.90;9.67;;;;;;;;;;5128326;28;20591;-78
2023/12/14 14:08:37;;;;;;;12.20;10.97;;;;;;;;;;5128268;28;20213;-78
2023/12/14 14:11:06;;;;;;;47.17;26.67;;;;;;;;;;5128326;28;20673;-77
2023/12/14 14:13:33;;;;;;;14.57;9.00;;;;;;;;;;5127388;28;20231;-79
2023/12/14 14:16:01;;;;;;;8.70;5.57;;;;;;;;;;5128132;28;20592;-79
2023/12/14 14:18:27;;;;;;;4.73;4.30;;;;;;;;;;5127860;28;20226;-79
2023/12/14 14:20:56;;;;;;;6.57;5.80;;;;;;;;;;5127955;28;20199;-79
2023/12/14 14:23:22;;;;;;;17.73;9.80;;;;;;;;;;5127097;28;20690;-79
2023/12/14 14:25:53;;;;;;;5.70;4.20;;;;;;;;;;5127690;28;20203;-77
2023/12/14 14:28:20;;;;;;;4.07;3.50;;;;;;;;;;5124478;28;20231;-77
2023/12/14 14:30:47;;;;;;;3.60;3.30;;;;;;;;;;5114133;28;20759;-79
2023/12/14 14:33:17;;;;;;;3.90;3.50;;;;;;;;;;5113273;28;20202;-77
2023/12/14 14:35:45;;;;;;;5.00;3.87;;;;;;;;;;5113528;28;20207;-76
2023/12/14 14:38:14;;;;;;;3.80;3.10;;;;;;;;;;5113517;28;20224;-79
2023/12/14 14:40:42;;;;;;;4.17;3.37;;;;;;;;;;5112783;28;20205;-77
2023/12/14 14:43:09;;;;;;;4.00;3.60;;;;;;;;;;5113690;28;20207;-77
2023/12/14 14:45:37;;;;;;;5.47;4.47;;;;;;;;;;5113037;28;20204;-77
2023/12/14 14:48:05;;;;;;;4.13;3.73;;;;;;;;;;5113631;28;20200;-77
2023/12/14 14:50:32;;;;;;;4.57;4.10;;;;;;;;;;5113450;28;20288;-78
2023/12/14 14:52:59;;;;;;;6.53;5.87;;;;;;;;;;5113237;28;20196;-77
2023/12/14 14:55:27;;;;;;;7.37;6.07;;;;;;;;;;5113380;28;20200;-78
2023/12/14 14:57:54;;;;;;;6.10;5.30;;;;;;;;;;5113280;28;20223;-78
2023/12/14 15:00:21;;;;;;;12.23;11.07;;;;;;;;;;5113475;28;20214;-78
2023/12/14 15:02:48;;;;;;;6.73;6.07;;;;;;;;;;5113148;28;20204;-78
2023/12/14 15:05:15;;;;;;;4.60;3.23;;;;;;;;;;5113179;28;20199;-77
2023/12/14 15:07:42;;;;;;;3.60;3.30;;;;;;;;;;5112996;28;20204;-77
2023/12/14 15:10:09;;;;;;;3.93;3.63;;;;;;;;;;5113096;28;20210;-77
2023/12/14 15:12:37;;;;;;;4.47;3.57;;;;;;;;;;5112888;28;20203;-77
2023/12/14 15:15:09;;;;;;;3.60;3.30;;;;;;;;;;5110484;28;20189;-80
2023/12/14 15:17:36;;;;;;;46.17;28.13;;;;;;;;;;5102642;28;20235;-79
2023/12/14 15:20:03;;;;;;;42.83;23.83;;;;;;;;;;5113130;28;20206;-79
2023/12/14 15:22:30;;;;;;;11.10;8.50;;;;;;;;;;5112731;28;20204;-78
2023/12/14 15:24:57;;;;;;;7.20;5.73;;;;;;;;;;5112703;28;20204;-77
2023/12/14 15:27:24;;;;;;;3.90;3.50;;;;;;;;;;5112640;28;20203;-77
2023/12/14 15:29:53;;;;;;;4.37;3.73;;;;;;;;;;5094299;28;20214;-77
2023/12/14 15:32:20;;;;;;;4.50;4.10;;;;;;;;;;5113282;28;20203;-77
2023/12/14 15:34:48;;;;;;;4.37;3.97;;;;;;;;;;5112443;28;20199;-77
2023/12/14 15:37:15;;;;;;;5.57;5.03;;;;;;;;;;5112471;28;20261;-79
2023/12/14 15:39:47;;;;;;;5.37;4.83;;;;;;;;;;5112296;28;20203;-78
2023/12/14 15:42:14;;;;;;;6.73;5.93;;;;;;;;;;5111788;28;20202;-79
2023/12/14 15:44:41;;;;;;;164.07;65.87;;;;;;;;;;5085595;28;20210;-79
2023/12/14 15:47:09;;;;;;;27.07;15.50;;;;;;;;;;5101096;28;20200;-80
2023/12/14 15:49:36;;;;;;;15.80;10.67;;;;;;;;;;5085829;28;20223;-79
2023/12/14 15:52:03;;;;;;;5.17;4.63;;;;;;;;;;5106196;28;20199;-79
2023/12/14 15:54:30;;;;;;;5.67;5.03;;;;;;;;;;5112469;28;20203;-76
2023/12/14 15:56:58;;;;;;;12.17;8.80;;;;;;;;;;5101394;28;20192;-77
2023/12/14 15:59:25;;;;;;;19.27;11.37;;;;;;;;;;5111838;28;20775;-77
2023/12/14 16:01:52;;;;;;;9.23;6.43;;;;;;;;;;5106402;28;20197;-76
2023/12/14 16:04:20;;;;;;;3.90;3.40;;;;;;;;;;5097879;28;20256;-76
2023/12/14 16:06:47;;;;;;;4.43;3.70;;;;;;;;;;5111989;28;20226;-76
2023/12/14 16:09:14;;;;;;;11.67;10.47;;;;;;;;;;5096742;28;20679;-75
2023/12/14 16:11:42;;;;;;;10.57;9.40;;;;;;;;;;5091851;28;20702;-75
2023/12/14 16:14:09;;;;;;;7.63;6.87;;;;;;;;;;5094909;28;20203;-76
2023/12/14 16:16:36;;;;;;;4.47;4.07;;;;;;;;;;5093334;28;20200;-76
2023/12/14 16:19:03;;;;;;;3.90;3.13;;;;;;;;;;5097583;28;20215;-75
2023/12/14 16:21:32;;;;;;;4.30;3.73;;;;;;;;;;5111236;28;20200;-76
2023/12/14 16:23:58;;;;;;;3.03;2.83;;;;;;;;;;5111769;28;20261;-76
2023/12/14 16:26:26;;;;;;;8.20;7.10;;;;;;;;;;5097208;28;20199;-76
2023/12/14 16:28:53;;;;;;;3.00;2.67;;;;;;;;;;5092076;28;20705;-77
2023/12/14 16:31:19;;;;;;;3.20;2.83;;;;;;;;;;5094868;28;20204;-76
2023/12/14 16:33:46;;;;;;;3.40;3.10;;;;;;;;;;5093087;28;20291;-76
2023/12/14 16:36:14;;;;;;;3.27;2.97;;;;;;;;;;5095469;28;20199;-76
2023/12/14 16:38:44;;;;;;;4.83;4.43;;;;;;;;;;5093430;28;20228;-77
2023/12/14 16:41:11;;;;;;;4.80;4.23;;;;;;;;;;5110172;28;20667;-77
2023/12/14 16:43:37;;;;;;;3.60;3.30;;;;;;;;;;5110731;28;20218;-77
2023/12/14 16:46:05;;;;;;;4.27;3.00;;;;;;;;;;5111427;28;20203;-77
2023/12/14 16:48:32;;;;;;;6.93;6.23;;;;;;;;;;5110503;28;20582;-77
2023/12/14 16:50:59;;;;;;;4.47;4.07;;;;;;;;;;5111611;28;20641;-77
2023/12/14 16:53:26;;;;;;;4.23;3.83;;;;;;;;;;5110418;28;20208;-78
2023/12/14 16:55:58;;;;;;;3.43;3.13;;;;;;;;;;5111379;28;20203;-77
2023/12/14 16:58:25;;;;;;;2.83;2.63;;;;;;;;;;5111196;28;20685;-77
2023/12/14 17:00:53;;;;;;;3.47;2.73;;;;;;;;;;5110255;28;20704;-77
2023/12/14 17:03:20;;;;;;;3.53;3.00;;;;;;;;;;5101969;28;20328;-77
2023/12/14 17:05:46;;;;;;;2.97;2.77;;;;;;;;;;5108837;28;20202;-77
2023/12/14 17:08:14;;;;;;;3.20;2.63;;;;;;;;;;5110404;28;20203;-77
2023/12/14 17:10:41;;;;;;;3.40;2.30;;;;;;;;;;5110311;28;20609;-77
2023/12/14 17:13:09;;;;;;;2.27;2.07;;;;;;;;;;5110527;28;20204;-77
2023/12/14 17:15:36;;;;;;;3.03;2.73;;;;;;;;;;5110411;28;20690;-76
2023/12/14 17:18:03;;;;;;;3.37;2.50;;;;;;;;;;5111397;28;20222;-77
2023/12/14 17:20:30;;;;;;;3.23;2.63;;;;;;;;;;5111065;28;20199;-77
2023/12/14 17:22:57;;;;;;;2.70;2.50;;;;;;;;;;5111136;28;20207;-77
2023/12/14 17:25:23;;;;;;;3.37;2.80;;;;;;;;;;5111126;28;20227;-77
2023/12/14 17:27:50;;;;;;;6.83;4.93;;;;;;;;;;5110398;28;20612;-77
2023/12/14 17:30:18;;;;;;;3.93;3.63;;;;;;;;;;5110630;28;20199;-77
2023/12/14 17:32:45;;;;;;;21.47;13.07;;;;;;;;;;5110812;28;20669;-77
2023/12/14 17:35:12;;;;;;;19.53;12.60;;;;;;;;;;5083697;28;20257;-79
2023/12/14 17:37:39;;;;;;;89.23;47.10;;;;;;;;;;5110266;28;20233;-78
2023/12/14 17:40:07;;;;;;;60.80;43.40;;;;;;;;;;5111075;28;20242;-77
2023/12/14 17:42:35;;;;;;;26.93;20.40;;;;;;;;;;5110529;28;20214;-78
2023/12/14 17:45:02;;;;;;;24.40;18.77;;;;;;;;;;5096255;28;20204;-76
2023/12/14 17:47:30;;;;;;;42.83;26.33;;;;;;;;;;5110268;28;20207;-76
2023/12/14 17:49:57;;;;;;;101.70;64.07;;;;;;;;;;5110379;28;20286;-76
2023/12/14 17:52:25;;;;;;;18.47;13.23;;;;;;;;;;5110378;28;20211;-77
2023/12/14 17:54:52;;;;;;;44.33;29.57;;;;;;;;;;5109890;28;20207;-78
2023/12/14 17:57:19;;;;;;;45.10;29.80;;;;;;;;;;5110037;28;20192;-77
2023/12/14 17:59:46;;;;;;;28.07;19.07;;;;;;;;;;5101582;28;20224;-76
2023/12/14 18:02:13;;;;;;;5.23;4.73;;;;;;;;;;5091062;28;20200;-77
2023/12/14 18:04:41;;;;;;;3.70;3.40;;;;;;;;;;5093447;28;20219;-77
2023/12/14 18:07:08;;;;;;;6.83;5.13;;;;;;;;;;5096485;28;20210;-76
2023/12/14 18:09:35;;;;;;;4.27;3.70;;;;;;;;;;5095193;28;20236;-76
2023/12/14 18:12:09;;;;;;;3.53;2.67;;;;;;;;;;5097575;28;20665;-77
2023/12/14 18:14:36;;;;;;;2.90;2.60;;;;;;;;;;5095951;28;20289;-77
2023/12/14 18:17:02;;;;;;;2.50;2.10;;;;;;;;;;5101506;28;20661;-76
2023/12/14 18:19:29;;;;;;;3.00;2.80;;;;;;;;;;5101186;28;20231;-76
2023/12/14 18:21:58;;;;;;;2.80;2.43;;;;;;;;;;5100007;28;20215;-76
2023/12/14 18:24:25;;;;;;;3.27;2.63;;;;;;;;;;5113938;28;20210;-77
2023/12/14 18:26:52;;;;;;;6.40;3.17;;;;;;;;;;5086643;28;20696;-77
2023/12/14 18:29:22;;;;;;;3.57;2.40;;;;;;;;;;5100430;28;20234;-77
2023/12/14 18:31:50;;;;;;;3.47;3.17;;;;;;;;;;5114059;28;20234;-78
2023/12/14 18:34:17;;;;;;;3.60;3.27;;;;;;;;;;5113045;28;20700;-78
2023/12/14 18:36:44;;;;;;;3.30;2.87;;;;;;;;;;5113727;28;20203;-78
2023/12/14 18:39:12;;;;;;;2.80;2.53;;;;;;;;;;5113286;28;20230;-78
2023/12/14 18:41:39;;;;;;;51.17;31.07;;;;;;;;;;5113755;28;20200;-78
2023/12/14 18:44:07;;;;;;;14.43;9.60;;;;;;;;;;5101717;28;20358;-78
2023/12/14 18:46:34;;;;;;;175.43;101.77;;;;;;;;;;5113215;28;20713;-78
2023/12/14 18:49:01;;;;;;;93.37;57.10;;;;;;;;;;5112719;28;20280;-78
2023/12/14 18:51:28;;;;;;;20.97;14.43;;;;;;;;;;5114020;28;20287;-78
2023/12/14 18:53:55;;;;;;;27.80;17.87;;;;;;;;;;5113110;28;20211;-77
2023/12/14 18:56:23;;;;;;;113.07;61.03;;;;;;;;;;5113638;28;21164;-78
2023/12/14 18:58:50;;;;;;;17.20;11.43;;;;;;;;;;5112716;28;20223;-78
2023/12/14 19:01:17;;;;;;;13.43;9.03;;;;;;;;;;5113774;28;20660;-78
2023/12/14 19:03:44;;;;;;;8.30;6.10;;;;;;;;;;5111672;28;20195;-78
2023/12/14 19:06:10;;;;;;;5.60;4.63;;;;;;;;;;5112858;28;20207;-77
2023/12/14 19:08:39;;;;;;;3.27;2.43;;;;;;;;;;5099658;28;20685;-77
2023/12/14 19:11:06;;;;;;;2.73;2.50;;;;;;;;;;5113870;28;20211;-76
2023/12/14 19:13:34;;;;;;;2.90;2.57;;;;;;;;;;5112524;28;20204;-76
2023/12/14 19:16:02;;;;;;;2.67;2.47;;;;;;;;;;5113124;28;20211;-78
2023/12/14 19:18:29;;;;;;;9.13;6.00;;;;;;;;;;5112760;28;20269;-77
2023/12/14 19:20:54;;;;;;;3.50;2.33;;;;;;;;;;5113069;28;20683;-76
2023/12/14 19:23:21;;;;;;;8.83;4.83;;;;;;;;;;5113024;28;20287;-77
2023/12/14 19:25:48;;;;;;;3.73;2.70;;;;;;;;;;5112735;28;20200;-76
2023/12/14 19:28:15;;;;;;;1.77;1.67;;;;;;;;;;5112316;28;20230;-78
2023/12/14 19:30:44;;;;;;;1.50;1.40;;;;;;;;;;5112949;28;20214;-77
2023/12/14 19:33:10;;;;;;;1.43;1.33;;;;;;;;;;5111893;28;20196;-76
2023/12/14 19:35:37;;;;;;;1.50;1.40;;;;;;;;;;5111004;28;20210;-77
2023/12/14 19:38:05;;;;;;;1.13;1.13;;;;;;;;;;5111111;28;20195;-77
2023/12/14 19:40:32;;;;;;;1.83;1.50;;;;;;;;;;5111555;28;20265;-77
2023/12/14 19:42:59;;;;;;;1.60;1.50;;;;;;;;;;5110979;28;20272;-77